sensor_id;sensor_type;location;lat;lon;timestamp;P1;durP1;ratioP1;P2;durP2;ratioP2
63874;SDS011;51595;24.180;-110.296;2022-08-19T00:00:30;4.45;;;1.98;;
63874;SDS011;51595;24.180;-110.296;2022-08-19T00:02:57;4.45;;;1.85;;
63874;SDS011;51595;24.180;-110.296;2022-08-19T00:05:23;9.77;;;2.45;;
63874;SDS011;51595;24.180;-110.296;2022-08-19T00:07:50;7.45;;;2.05;;
63874;SDS011;51595;24.180;-110.296;2022-08-19T00:10:17;4.60;;;2.08;;
63874;SDS011;51595;24.180;-110.296;2022-08-19T00:12:45;3.83;;;1.83;;
63874;SDS011;51595;24.180;-110.296;2022-08-19T00:15:12;7.28;;;2.50;;
63874;SDS011;51595;24.180;-110.296;2022-08-19T00:17:44;5.38;;;2.20;;
63874;SDS011;51595;24.180;-110.296;2022-08-19T00:20:12;3.85;;;2.00;;
63874;SDS011;51595;24.180;-110.296;2022-08-19T00:22:43;2.55;;;1.55;;
63874;SDS011;51595;24.180;-110.296;2022-08-19T00:25:10;6.15;;;2.05;;
63874;SDS011;51595;24.180;-110.296;2022-08-19T00:27:37;6.28;;;2.35;;
63874;SDS011;51595;24.180;-110.296;2022-08-19T00:30:04;4.60;;;1.70;;
63874;SDS011;51595;24.180;-110.296;2022-08-19T00:32:32;6.90;;;2.00;;
63874;SDS011;51595;24.180;-110.296;2022-08-19T00:34:59;8.15;;;2.25;;
63874;SDS011;51595;24.180;-110.296;2022-08-19T00:37:26;12.95;;;2.80;;
63874;SDS011;51595;24.180;-110.296;2022-08-19T00:39:53;5.55;;;2.25;;
63874;SDS011;51595;24.180;-110.296;2022-08-19T00:42:21;8.07;;;2.47;;
63874;SDS011;51595;24.180;-110.296;2022-08-19T00:44:48;4.18;;;1.88;;
63874;SDS011;51595;24.180;-110.296;2022-08-19T00:47:18;7.55;;;2.58;;
63874;SDS011;51595;24.180;-110.296;2022-08-19T00:49:49;6.57;;;1.80;;
63874;SDS011;51595;24.180;-110.296;2022-08-19T00:52:26;6.95;;;2.10;;
63874;SDS011;51595;24.180;-110.296;2022-08-19T00:54:56;9.73;;;2.53;;
63874;SDS011;51595;24.180;-110.296;2022-08-19T00:57:31;7.95;;;2.53;;
63874;SDS011;51595;24.180;-110.296;2022-08-19T01:00:05;4.50;;;2.40;;
63874;SDS011;51595;24.180;-110.296;2022-08-19T01:02:39;6.03;;;2.17;;
63874;SDS011;51595;24.180;-110.296;2022-08-19T01:05:15;8.02;;;2.28;;
63874;SDS011;51595;24.180;-110.296;2022-08-19T01:07:45;6.57;;;2.60;;
63874;SDS011;51595;24.180;-110.296;2022-08-19T01:10:17;4.18;;;2.05;;
63874;SDS011;51595;24.180;-110.296;2022-08-19T01:12:46;6.13;;;2.38;;
63874;SDS011;51595;24.180;-110.296;2022-08-19T01:15:14;8.15;;;2.30;;
63874;SDS011;51595;24.180;-110.296;2022-08-19T01:17:45;8.65;;;2.60;;
63874;SDS011;51595;24.180;-110.296;2022-08-19T01:20:14;7.47;;;2.30;;
63874;SDS011;51595;24.180;-110.296;2022-08-19T01:25:20;9.13;;;2.50;;
63874;SDS011;51595;24.180;-110.296;2022-08-19T01:27:51;8.48;;;2.50;;
63874;SDS011;51595;24.180;-110.296;2022-08-19T01:30:24;6.30;;;1.98;;
63874;SDS011;51595;24.180;-110.296;2022-08-19T01:32:53;7.13;;;2.10;;
63874;SDS011;51595;24.180;-110.296;2022-08-19T01:35:25;9.80;;;2.28;;
63874;SDS011;51595;24.180;-110.296;2022-08-19T01:40:27;16.35;;;2.63;;
63874;SDS011;51595;24.180;-110.296;2022-08-19T01:42:56;6.50;;;2.20;;
63874;SDS011;51595;24.180;-110.296;2022-08-19T01:45:24;6.95;;;2.30;;
63874;SDS011;51595;24.180;-110.296;2022-08-19T01:47:55;7.90;;;2.53;;
63874;SDS011;51595;24.180;-110.296;2022-08-19T01:50:22;9.38;;;2.65;;
63874;SDS011;51595;24.180;-110.296;2022-08-19T01:52:49;6.65;;;2.70;;
63874;SDS011;51595;24.180;-110.296;2022-08-19T01:55:17;6.88;;;2.58;;
63874;SDS011;51595;24.180;-110.296;2022-08-19T01:57:48;11.25;;;2.35;;
63874;SDS011;51595;24.180;-110.296;2022-08-19T02:00:22;6.80;;;2.38;;
63874;SDS011;51595;24.180;-110.296;2022-08-19T02:02:50;5.43;;;1.90;;
63874;SDS011;51595;24.180;-110.296;2022-08-19T02:05:17;5.63;;;2.28;;
63874;SDS011;51595;24.180;-110.296;2022-08-19T02:07:46;6.95;;;2.42;;
63874;SDS011;51595;24.180;-110.296;2022-08-19T02:10:16;11.35;;;2.30;;
63874;SDS011;51595;24.180;-110.296;2022-08-19T02:12:45;6.13;;;2.42;;
63874;SDS011;51595;24.180;-110.296;2022-08-19T02:15:13;9.80;;;2.50;;
63874;SDS011;51595;24.180;-110.296;2022-08-19T02:17:39;8.93;;;2.40;;
63874;SDS011;51595;24.180;-110.296;2022-08-19T02:20:06;13.07;;;2.60;;
63874;SDS011;51595;24.180;-110.296;2022-08-19T02:22:33;8.27;;;2.60;;
63874;SDS011;51595;24.180;-110.296;2022-08-19T02:25:00;5.70;;;2.22;;
63874;SDS011;51595;24.180;-110.296;2022-08-19T02:27:27;8.13;;;2.92;;
63874;SDS011;51595;24.180;-110.296;2022-08-19T02:29:53;7.47;;;2.70;;
63874;SDS011;51595;24.180;-110.296;2022-08-19T02:32:20;5.38;;;2.38;;
63874;SDS011;51595;24.180;-110.296;2022-08-19T02:34:47;8.90;;;2.47;;
63874;SDS011;51595;24.180;-110.296;2022-08-19T02:37:14;8.48;;;2.10;;
63874;SDS011;51595;24.180;-110.296;2022-08-19T02:39:58;5.53;;;2.00;;
63874;SDS011;51595;24.180;-110.296;2022-08-19T02:42:25;8.93;;;2.13;;
63874;SDS011;51595;24.180;-110.296;2022-08-19T02:44:51;7.18;;;2.42;;
63874;SDS011;51595;24.180;-110.296;2022-08-19T02:47:20;8.27;;;2.90;;
63874;SDS011;51595;24.180;-110.296;2022-08-19T02:49:47;9.52;;;2.40;;
63874;SDS011;51595;24.180;-110.296;2022-08-19T02:52:17;6.50;;;2.33;;
63874;SDS011;51595;24.180;-110.296;2022-08-19T02:54:44;10.23;;;2.50;;
63874;SDS011;51595;24.180;-110.296;2022-08-19T02:57:11;6.15;;;2.10;;
63874;SDS011;51595;24.180;-110.296;2022-08-19T02:59:37;9.48;;;2.45;;
63874;SDS011;51595;24.180;-110.296;2022-08-19T03:02:05;10.18;;;2.55;;
63874;SDS011;51595;24.180;-110.296;2022-08-19T03:04:31;6.75;;;2.20;;
63874;SDS011;51595;24.180;-110.296;2022-08-19T03:06:57;5.78;;;2.38;;
63874;SDS011;51595;24.180;-110.296;2022-08-19T03:09:24;7.57;;;2.60;;
63874;SDS011;51595;24.180;-110.296;2022-08-19T03:11:50;9.93;;;2.92;;
63874;SDS011;51595;24.180;-110.296;2022-08-19T03:14:17;7.43;;;2.58;;
63874;SDS011;51595;24.180;-110.296;2022-08-19T03:16:44;8.35;;;2.42;;
63874;SDS011;51595;24.180;-110.296;2022-08-19T03:19:13;8.00;;;2.85;;
63874;SDS011;51595;24.180;-110.296;2022-08-19T03:21:42;6.38;;;2.40;;
63874;SDS011;51595;24.180;-110.296;2022-08-19T03:24:13;8.73;;;2.55;;
63874;SDS011;51595;24.180;-110.296;2022-08-19T03:26:41;13.30;;;3.10;;
63874;SDS011;51595;24.180;-110.296;2022-08-19T03:29:10;5.97;;;2.20;;
63874;SDS011;51595;24.180;-110.296;2022-08-19T03:31:37;8.60;;;2.65;;
63874;SDS011;51595;24.180;-110.296;2022-08-19T03:34:06;7.13;;;2.55;;
63874;SDS011;51595;24.180;-110.296;2022-08-19T03:36:32;6.75;;;2.10;;
63874;SDS011;51595;24.180;-110.296;2022-08-19T03:39:00;5.38;;;2.63;;
63874;SDS011;51595;24.180;-110.296;2022-08-19T03:41:28;8.63;;;2.70;;
63874;SDS011;51595;24.180;-110.296;2022-08-19T03:43:56;6.88;;;2.33;;
63874;SDS011;51595;24.180;-110.296;2022-08-19T03:46:25;8.95;;;2.45;;
63874;SDS011;51595;24.180;-110.296;2022-08-19T03:48:54;7.35;;;2.78;;
63874;SDS011;51595;24.180;-110.296;2022-08-19T03:53:56;9.02;;;2.65;;
63874;SDS011;51595;24.180;-110.296;2022-08-19T03:56:25;10.68;;;3.00;;
63874;SDS011;51595;24.180;-110.296;2022-08-19T03:58:53;6.35;;;2.45;;
63874;SDS011;51595;24.180;-110.296;2022-08-19T04:01:23;9.98;;;3.53;;
63874;SDS011;51595;24.180;-110.296;2022-08-19T04:03:51;6.78;;;2.47;;
63874;SDS011;51595;24.180;-110.296;2022-08-19T04:06:20;8.07;;;2.22;;
63874;SDS011;51595;24.180;-110.296;2022-08-19T04:08:53;11.40;;;2.78;;
63874;SDS011;51595;24.180;-110.296;2022-08-19T04:11:23;8.82;;;2.55;;
63874;SDS011;51595;24.180;-110.296;2022-08-19T04:13:52;9.88;;;2.70;;
63874;SDS011;51595;24.180;-110.296;2022-08-19T04:16:21;8.00;;;2.85;;
63874;SDS011;51595;24.180;-110.296;2022-08-19T04:18:49;9.20;;;2.78;;
63874;SDS011;51595;24.180;-110.296;2022-08-19T04:21:21;10.57;;;2.85;;
63874;SDS011;51595;24.180;-110.296;2022-08-19T04:23:49;5.03;;;2.60;;
63874;SDS011;51595;24.180;-110.296;2022-08-19T04:26:16;9.13;;;2.50;;
63874;SDS011;51595;24.180;-110.296;2022-08-19T04:28:45;10.15;;;2.90;;
63874;SDS011;51595;24.180;-110.296;2022-08-19T04:31:17;9.38;;;2.97;;
63874;SDS011;51595;24.180;-110.296;2022-08-19T04:33:46;9.73;;;3.08;;
63874;SDS011;51595;24.180;-110.296;2022-08-19T04:36:19;7.43;;;2.28;;
63874;SDS011;51595;24.180;-110.296;2022-08-19T04:41:15;6.72;;;2.35;;
63874;SDS011;51595;24.180;-110.296;2022-08-19T04:44:00;12.35;;;3.28;;
63874;SDS011;51595;24.180;-110.296;2022-08-19T04:46:27;7.93;;;2.53;;
63874;SDS011;51595;24.180;-110.296;2022-08-19T04:48:56;9.73;;;3.20;;
63874;SDS011;51595;24.180;-110.296;2022-08-19T04:51:26;9.20;;;2.95;;
63874;SDS011;51595;24.180;-110.296;2022-08-19T04:53:53;8.25;;;3.22;;
63874;SDS011;51595;24.180;-110.296;2022-08-19T04:56:20;7.93;;;2.60;;
63874;SDS011;51595;24.180;-110.296;2022-08-19T04:58:49;13.13;;;2.90;;
63874;SDS011;51595;24.180;-110.296;2022-08-19T05:01:27;7.55;;;2.70;;
63874;SDS011;51595;24.180;-110.296;2022-08-19T05:03:55;7.25;;;2.75;;
63874;SDS011;51595;24.180;-110.296;2022-08-19T05:06:22;7.70;;;2.83;;
63874;SDS011;51595;24.180;-110.296;2022-08-19T05:08:49;8.45;;;3.05;;
63874;SDS011;51595;24.180;-110.296;2022-08-19T05:11:16;7.60;;;2.63;;
63874;SDS011;51595;24.180;-110.296;2022-08-19T05:13:54;10.50;;;2.85;;
63874;SDS011;51595;24.180;-110.296;2022-08-19T05:16:21;7.70;;;2.95;;
63874;SDS011;51595;24.180;-110.296;2022-08-19T05:18:49;7.75;;;2.85;;
63874;SDS011;51595;24.180;-110.296;2022-08-19T05:21:34;6.95;;;2.88;;
63874;SDS011;51595;24.180;-110.296;2022-08-19T05:26:47;11.25;;;3.42;;
63874;SDS011;51595;24.180;-110.296;2022-08-19T05:29:17;8.85;;;2.97;;
63874;SDS011;51595;24.180;-110.296;2022-08-19T05:31:47;12.25;;;3.50;;
63874;SDS011;51595;24.180;-110.296;2022-08-19T05:34:15;11.27;;;3.28;;
63874;SDS011;51595;24.180;-110.296;2022-08-19T05:36:44;8.80;;;2.75;;
63874;SDS011;51595;24.180;-110.296;2022-08-19T05:39:11;7.03;;;2.65;;
63874;SDS011;51595;24.180;-110.296;2022-08-19T05:41:44;8.90;;;2.78;;
63874;SDS011;51595;24.180;-110.296;2022-08-19T05:44:15;9.83;;;3.20;;
63874;SDS011;51595;24.180;-110.296;2022-08-19T05:46:43;7.95;;;2.90;;
63874;SDS011;51595;24.180;-110.296;2022-08-19T05:49:12;9.82;;;2.67;;
63874;SDS011;51595;24.180;-110.296;2022-08-19T05:51:41;8.77;;;2.90;;
63874;SDS011;51595;24.180;-110.296;2022-08-19T05:54:08;8.13;;;3.10;;
63874;SDS011;51595;24.180;-110.296;2022-08-19T05:56:39;8.40;;;2.45;;
63874;SDS011;51595;24.180;-110.296;2022-08-19T05:59:07;7.85;;;2.65;;
63874;SDS011;51595;24.180;-110.296;2022-08-19T06:01:40;10.65;;;2.97;;
63874;SDS011;51595;24.180;-110.296;2022-08-19T06:04:09;9.43;;;2.67;;
63874;SDS011;51595;24.180;-110.296;2022-08-19T06:06:35;10.43;;;3.42;;
63874;SDS011;51595;24.180;-110.296;2022-08-19T06:09:06;6.80;;;2.92;;
63874;SDS011;51595;24.180;-110.296;2022-08-19T06:14:06;10.13;;;3.15;;
63874;SDS011;51595;24.180;-110.296;2022-08-19T06:16:38;12.35;;;3.25;;
63874;SDS011;51595;24.180;-110.296;2022-08-19T06:19:16;9.43;;;2.72;;
63874;SDS011;51595;24.180;-110.296;2022-08-19T06:21:44;7.82;;;2.92;;
63874;SDS011;51595;24.180;-110.296;2022-08-19T06:24:13;9.80;;;3.08;;
63874;SDS011;51595;24.180;-110.296;2022-08-19T06:26:42;10.45;;;2.72;;
63874;SDS011;51595;24.180;-110.296;2022-08-19T06:29:10;9.20;;;3.10;;
63874;SDS011;51595;24.180;-110.296;2022-08-19T06:31:40;9.45;;;3.03;;
63874;SDS011;51595;24.180;-110.296;2022-08-19T06:34:09;13.73;;;3.10;;
63874;SDS011;51595;24.180;-110.296;2022-08-19T06:36:37;7.30;;;2.95;;
63874;SDS011;51595;24.180;-110.296;2022-08-19T06:39:08;9.45;;;3.00;;
63874;SDS011;51595;24.180;-110.296;2022-08-19T06:41:41;7.95;;;3.10;;
63874;SDS011;51595;24.180;-110.296;2022-08-19T06:44:12;11.40;;;2.95;;
63874;SDS011;51595;24.180;-110.296;2022-08-19T06:46:39;5.75;;;2.53;;
63874;SDS011;51595;24.180;-110.296;2022-08-19T06:49:06;8.35;;;3.30;;
63874;SDS011;51595;24.180;-110.296;2022-08-19T06:51:40;10.40;;;2.90;;
63874;SDS011;51595;24.180;-110.296;2022-08-19T06:54:07;8.07;;;2.88;;
63874;SDS011;51595;24.180;-110.296;2022-08-19T06:56:34;10.25;;;2.90;;
63874;SDS011;51595;24.180;-110.296;2022-08-19T06:59:06;11.48;;;3.70;;
63874;SDS011;51595;24.180;-110.296;2022-08-19T07:01:39;8.85;;;2.85;;
63874;SDS011;51595;24.180;-110.296;2022-08-19T07:04:12;10.88;;;2.97;;
63874;SDS011;51595;24.180;-110.296;2022-08-19T07:06:43;9.30;;;3.13;;
63874;SDS011;51595;24.180;-110.296;2022-08-19T07:09:14;10.13;;;3.47;;
63874;SDS011;51595;24.180;-110.296;2022-08-19T07:11:46;10.38;;;2.88;;
63874;SDS011;51595;24.180;-110.296;2022-08-19T07:14:15;7.95;;;3.10;;
63874;SDS011;51595;24.180;-110.296;2022-08-19T07:16:44;11.70;;;3.28;;
63874;SDS011;51595;24.180;-110.296;2022-08-19T07:19:11;9.00;;;2.90;;
63874;SDS011;51595;24.180;-110.296;2022-08-19T07:21:39;7.20;;;3.10;;
63874;SDS011;51595;24.180;-110.296;2022-08-19T07:24:06;6.55;;;2.47;;
63874;SDS011;51595;24.180;-110.296;2022-08-19T07:26:37;8.00;;;3.00;;
63874;SDS011;51595;24.180;-110.296;2022-08-19T07:29:05;8.80;;;3.00;;
63874;SDS011;51595;24.180;-110.296;2022-08-19T07:31:32;8.50;;;2.88;;
63874;SDS011;51595;24.180;-110.296;2022-08-19T07:34:02;11.35;;;2.97;;
63874;SDS011;51595;24.180;-110.296;2022-08-19T07:36:32;11.27;;;3.30;;
63874;SDS011;51595;24.180;-110.296;2022-08-19T07:39:01;12.23;;;3.60;;
63874;SDS011;51595;24.180;-110.296;2022-08-19T07:41:30;8.85;;;3.10;;
63874;SDS011;51595;24.180;-110.296;2022-08-19T07:43:56;10.32;;;3.33;;
63874;SDS011;51595;24.180;-110.296;2022-08-19T07:46:24;10.10;;;3.30;;
63874;SDS011;51595;24.180;-110.296;2022-08-19T07:48:53;9.70;;;3.15;;
63874;SDS011;51595;24.180;-110.296;2022-08-19T07:51:20;12.35;;;3.92;;
63874;SDS011;51595;24.180;-110.296;2022-08-19T07:53:47;9.35;;;3.10;;
63874;SDS011;51595;24.180;-110.296;2022-08-19T07:56:16;13.55;;;3.63;;
63874;SDS011;51595;24.180;-110.296;2022-08-19T07:58:44;10.07;;;3.30;;
63874;SDS011;51595;24.180;-110.296;2022-08-19T08:01:14;10.05;;;3.72;;
63874;SDS011;51595;24.180;-110.296;2022-08-19T08:03:43;10.05;;;3.30;;
63874;SDS011;51595;24.180;-110.296;2022-08-19T08:06:29;6.18;;;2.95;;
63874;SDS011;51595;24.180;-110.296;2022-08-19T08:09:14;10.32;;;3.90;;
63874;SDS011;51595;24.180;-110.296;2022-08-19T08:11:49;9.07;;;3.10;;
63874;SDS011;51595;24.180;-110.296;2022-08-19T08:14:27;10.75;;;3.63;;
63874;SDS011;51595;24.180;-110.296;2022-08-19T08:17:00;11.65;;;4.47;;
63874;SDS011;51595;24.180;-110.296;2022-08-19T08:19:28;11.52;;;3.58;;
63874;SDS011;51595;24.180;-110.296;2022-08-19T08:21:55;16.13;;;4.40;;
63874;SDS011;51595;24.180;-110.296;2022-08-19T08:24:24;11.50;;;3.42;;
63874;SDS011;51595;24.180;-110.296;2022-08-19T08:26:52;13.02;;;3.95;;
63874;SDS011;51595;24.180;-110.296;2022-08-19T08:29:19;16.38;;;3.95;;
63874;SDS011;51595;24.180;-110.296;2022-08-19T08:31:46;14.48;;;4.47;;
63874;SDS011;51595;24.180;-110.296;2022-08-19T08:34:13;18.55;;;4.03;;
63874;SDS011;51595;24.180;-110.296;2022-08-19T08:36:41;11.85;;;3.60;;
63874;SDS011;51595;24.180;-110.296;2022-08-19T08:39:14;10.15;;;4.25;;
63874;SDS011;51595;24.180;-110.296;2022-08-19T08:44:39;11.52;;;4.18;;
63874;SDS011;51595;24.180;-110.296;2022-08-19T08:47:16;15.55;;;4.82;;
63874;SDS011;51595;24.180;-110.296;2022-08-19T08:49:59;17.13;;;4.22;;
63874;SDS011;51595;24.180;-110.296;2022-08-19T08:52:33;14.93;;;4.22;;
63874;SDS011;51595;24.180;-110.296;2022-08-19T08:55:16;11.65;;;4.05;;
63874;SDS011;51595;24.180;-110.296;2022-08-19T08:57:53;14.85;;;4.38;;
63874;SDS011;51595;24.180;-110.296;2022-08-19T09:00:28;15.35;;;4.22;;
63874;SDS011;51595;24.180;-110.296;2022-08-19T09:02:58;11.38;;;3.63;;
63874;SDS011;51595;24.180;-110.296;2022-08-19T09:06:29;12.68;;;3.53;;
63874;SDS011;51595;24.180;-110.296;2022-08-19T09:08:40;16.67;;;4.00;;
63874;SDS011;51595;24.180;-110.296;2022-08-19T09:11:19;15.80;;;4.78;;
63874;SDS011;51595;24.180;-110.296;2022-08-19T09:16:40;14.88;;;3.92;;
63874;SDS011;51595;24.180;-110.296;2022-08-19T09:19:08;12.10;;;3.72;;
63874;SDS011;51595;24.180;-110.296;2022-08-19T09:21:35;9.30;;;3.60;;
63874;SDS011;51595;24.180;-110.296;2022-08-19T09:24:03;15.57;;;4.80;;
63874;SDS011;51595;24.180;-110.296;2022-08-19T09:26:31;13.63;;;4.25;;
63874;SDS011;51595;24.180;-110.296;2022-08-19T09:28:59;20.23;;;5.53;;
63874;SDS011;51595;24.180;-110.296;2022-08-19T09:31:28;17.52;;;4.35;;
63874;SDS011;51595;24.180;-110.296;2022-08-19T09:33:55;16.17;;;5.00;;
63874;SDS011;51595;24.180;-110.296;2022-08-19T09:36:22;17.67;;;4.68;;
63874;SDS011;51595;24.180;-110.296;2022-08-19T09:38:51;15.27;;;5.22;;
63874;SDS011;51595;24.180;-110.296;2022-08-19T09:41:19;15.45;;;4.25;;
63874;SDS011;51595;24.180;-110.296;2022-08-19T09:43:49;19.05;;;4.47;;
63874;SDS011;51595;24.180;-110.296;2022-08-19T09:46:17;18.50;;;4.75;;
63874;SDS011;51595;24.180;-110.296;2022-08-19T09:48:46;12.07;;;4.78;;
63874;SDS011;51595;24.180;-110.296;2022-08-19T09:51:16;11.25;;;4.35;;
63874;SDS011;51595;24.180;-110.296;2022-08-19T09:53:45;18.10;;;4.53;;
63874;SDS011;51595;24.180;-110.296;2022-08-19T09:56:15;13.40;;;4.43;;
63874;SDS011;51595;24.180;-110.296;2022-08-19T09:58:44;16.98;;;4.95;;
63874;SDS011;51595;24.180;-110.296;2022-08-19T10:01:15;18.15;;;5.03;;
63874;SDS011;51595;24.180;-110.296;2022-08-19T10:03:50;17.00;;;4.75;;
63874;SDS011;51595;24.180;-110.296;2022-08-19T10:06:19;12.00;;;4.90;;
63874;SDS011;51595;24.180;-110.296;2022-08-19T10:08:47;16.33;;;4.72;;
63874;SDS011;51595;24.180;-110.296;2022-08-19T10:11:14;13.13;;;4.40;;
63874;SDS011;51595;24.180;-110.296;2022-08-19T10:13:43;13.98;;;4.05;;
63874;SDS011;51595;24.180;-110.296;2022-08-19T10:16:11;20.95;;;4.82;;
63874;SDS011;51595;24.180;-110.296;2022-08-19T10:18:39;15.20;;;4.88;;
63874;SDS011;51595;24.180;-110.296;2022-08-19T10:21:10;17.20;;;5.07;;
63874;SDS011;51595;24.180;-110.296;2022-08-19T10:23:40;15.70;;;5.10;;
63874;SDS011;51595;24.180;-110.296;2022-08-19T10:26:11;21.38;;;4.68;;
63874;SDS011;51595;24.180;-110.296;2022-08-19T10:28:42;20.73;;;5.43;;
63874;SDS011;51595;24.180;-110.296;2022-08-19T10:31:10;16.77;;;4.72;;
63874;SDS011;51595;24.180;-110.296;2022-08-19T10:33:40;17.80;;;5.65;;
63874;SDS011;51595;24.180;-110.296;2022-08-19T10:36:08;14.45;;;4.85;;
63874;SDS011;51595;24.180;-110.296;2022-08-19T10:38:40;9.60;;;3.95;;
63874;SDS011;51595;24.180;-110.296;2022-08-19T10:41:14;16.63;;;5.03;;
63874;SDS011;51595;24.180;-110.296;2022-08-19T10:43:43;19.30;;;5.10;;
63874;SDS011;51595;24.180;-110.296;2022-08-19T10:46:11;14.75;;;4.63;;
63874;SDS011;51595;24.180;-110.296;2022-08-19T10:48:42;20.02;;;5.55;;
63874;SDS011;51595;24.180;-110.296;2022-08-19T10:51:09;16.90;;;4.78;;
63874;SDS011;51595;24.180;-110.296;2022-08-19T10:56:21;15.95;;;5.28;;
63874;SDS011;51595;24.180;-110.296;2022-08-19T10:59:06;17.10;;;4.78;;
63874;SDS011;51595;24.180;-110.296;2022-08-19T11:01:33;13.02;;;4.88;;
63874;SDS011;51595;24.180;-110.296;2022-08-19T11:04:01;15.55;;;5.60;;
63874;SDS011;51595;24.180;-110.296;2022-08-19T11:06:30;21.75;;;5.40;;
63874;SDS011;51595;24.180;-110.296;2022-08-19T11:08:57;23.02;;;5.50;;
63874;SDS011;51595;24.180;-110.296;2022-08-19T11:11:25;16.65;;;5.57;;
63874;SDS011;51595;24.180;-110.296;2022-08-19T11:13:53;19.67;;;5.28;;
63874;SDS011;51595;24.180;-110.296;2022-08-19T11:16:21;30.60;;;5.13;;
63874;SDS011;51595;24.180;-110.296;2022-08-19T11:18:51;17.10;;;4.82;;
63874;SDS011;51595;24.180;-110.296;2022-08-19T11:21:24;19.08;;;5.38;;
63874;SDS011;51595;24.180;-110.296;2022-08-19T11:24:18;19.55;;;4.72;;
63874;SDS011;51595;24.180;-110.296;2022-08-19T11:26:47;23.17;;;5.55;;
63874;SDS011;51595;24.180;-110.296;2022-08-19T11:29:17;14.50;;;4.15;;
63874;SDS011;51595;24.180;-110.296;2022-08-19T11:31:46;20.15;;;4.75;;
63874;SDS011;51595;24.180;-110.296;2022-08-19T11:34:16;16.60;;;4.35;;
63874;SDS011;51595;24.180;-110.296;2022-08-19T11:36:52;18.52;;;5.25;;
63874;SDS011;51595;24.180;-110.296;2022-08-19T11:39:23;18.40;;;5.50;;
63874;SDS011;51595;24.180;-110.296;2022-08-19T11:41:51;17.20;;;4.63;;
63874;SDS011;51595;24.180;-110.296;2022-08-19T11:44:18;15.75;;;4.68;;
63874;SDS011;51595;24.180;-110.296;2022-08-19T11:46:45;22.02;;;5.05;;
63874;SDS011;51595;24.180;-110.296;2022-08-19T11:49:18;15.38;;;4.60;;
63874;SDS011;51595;24.180;-110.296;2022-08-19T11:51:46;14.33;;;4.90;;
63874;SDS011;51595;24.180;-110.296;2022-08-19T11:54:15;15.05;;;4.40;;
63874;SDS011;51595;24.180;-110.296;2022-08-19T11:56:42;18.83;;;4.93;;
63874;SDS011;51595;24.180;-110.296;2022-08-19T11:59:11;21.27;;;5.43;;
63874;SDS011;51595;24.180;-110.296;2022-08-19T12:01:37;16.75;;;4.57;;
63874;SDS011;51595;24.180;-110.296;2022-08-19T12:04:06;11.25;;;4.30;;
63874;SDS011;51595;24.180;-110.296;2022-08-19T12:06:32;15.85;;;5.07;;
63874;SDS011;51595;24.180;-110.296;2022-08-19T12:09:02;16.95;;;5.57;;
63874;SDS011;51595;24.180;-110.296;2022-08-19T12:11:31;12.77;;;4.88;;
63874;SDS011;51595;24.180;-110.296;2022-08-19T12:13:57;15.70;;;4.88;;
63874;SDS011;51595;24.180;-110.296;2022-08-19T12:16:25;18.13;;;4.88;;
63874;SDS011;51595;24.180;-110.296;2022-08-19T12:18:53;19.23;;;5.65;;
63874;SDS011;51595;24.180;-110.296;2022-08-19T12:21:24;17.20;;;4.53;;
63874;SDS011;51595;24.180;-110.296;2022-08-19T12:23:56;23.85;;;5.53;;
63874;SDS011;51595;24.180;-110.296;2022-08-19T12:26:24;18.33;;;4.53;;
63874;SDS011;51595;24.180;-110.296;2022-08-19T12:28:52;18.60;;;5.25;;
63874;SDS011;51595;24.180;-110.296;2022-08-19T12:31:19;14.07;;;4.85;;
63874;SDS011;51595;24.180;-110.296;2022-08-19T12:33:46;14.23;;;4.80;;
63874;SDS011;51595;24.180;-110.296;2022-08-19T12:36:13;18.88;;;4.53;;
63874;SDS011;51595;24.180;-110.296;2022-08-19T12:38:41;16.20;;;5.13;;
63874;SDS011;51595;24.180;-110.296;2022-08-19T12:41:10;21.25;;;5.05;;
63874;SDS011;51595;24.180;-110.296;2022-08-19T12:43:38;20.23;;;5.28;;
63874;SDS011;51595;24.180;-110.296;2022-08-19T12:46:06;20.83;;;6.10;;
63874;SDS011;51595;24.180;-110.296;2022-08-19T12:48:33;18.65;;;5.00;;
63874;SDS011;51595;24.180;-110.296;2022-08-19T12:51:01;13.68;;;4.63;;
63874;SDS011;51595;24.180;-110.296;2022-08-19T12:53:33;20.73;;;5.07;;
63874;SDS011;51595;24.180;-110.296;2022-08-19T12:56:00;19.08;;;5.35;;
63874;SDS011;51595;24.180;-110.296;2022-08-19T12:58:27;14.07;;;5.18;;
63874;SDS011;51595;24.180;-110.296;2022-08-19T13:00:54;18.17;;;5.43;;
63874;SDS011;51595;24.180;-110.296;2022-08-19T13:03:21;19.20;;;5.15;;
63874;SDS011;51595;24.180;-110.296;2022-08-19T13:05:54;23.27;;;5.18;;
63874;SDS011;51595;24.180;-110.296;2022-08-19T13:08:21;21.60;;;5.10;;
63874;SDS011;51595;24.180;-110.296;2022-08-19T13:10:47;18.23;;;5.68;;
63874;SDS011;51595;24.180;-110.296;2022-08-19T13:13:13;17.50;;;4.80;;
63874;SDS011;51595;24.180;-110.296;2022-08-19T13:15:41;16.23;;;4.53;;
63874;SDS011;51595;24.180;-110.296;2022-08-19T13:18:11;13.90;;;4.78;;
63874;SDS011;51595;24.180;-110.296;2022-08-19T13:20:38;15.25;;;4.85;;
63874;SDS011;51595;24.180;-110.296;2022-08-19T13:23:08;18.95;;;4.82;;
63874;SDS011;51595;24.180;-110.296;2022-08-19T13:25:35;17.58;;;4.95;;
63874;SDS011;51595;24.180;-110.296;2022-08-19T13:28:02;16.95;;;4.68;;
63874;SDS011;51595;24.180;-110.296;2022-08-19T13:30:29;16.27;;;4.57;;
63874;SDS011;51595;24.180;-110.296;2022-08-19T13:33:13;19.65;;;4.85;;
63874;SDS011;51595;24.180;-110.296;2022-08-19T13:35:42;17.48;;;5.07;;
63874;SDS011;51595;24.180;-110.296;2022-08-19T13:38:15;19.60;;;4.45;;
63874;SDS011;51595;24.180;-110.296;2022-08-19T13:40:44;16.38;;;4.60;;
63874;SDS011;51595;24.180;-110.296;2022-08-19T13:43:11;16.23;;;4.53;;
63874;SDS011;51595;24.180;-110.296;2022-08-19T13:45:39;20.95;;;5.03;;
63874;SDS011;51595;24.180;-110.296;2022-08-19T13:48:06;19.13;;;5.07;;
63874;SDS011;51595;24.180;-110.296;2022-08-19T13:50:35;17.60;;;4.75;;
63874;SDS011;51595;24.180;-110.296;2022-08-19T13:53:07;15.85;;;4.03;;
63874;SDS011;51595;24.180;-110.296;2022-08-19T13:55:35;13.07;;;4.55;;
63874;SDS011;51595;24.180;-110.296;2022-08-19T13:58:03;16.05;;;4.35;;
63874;SDS011;51595;24.180;-110.296;2022-08-19T14:00:32;15.80;;;4.05;;
63874;SDS011;51595;24.180;-110.296;2022-08-19T14:03:00;14.52;;;3.97;;
63874;SDS011;51595;24.180;-110.296;2022-08-19T14:05:28;14.10;;;4.18;;
63874;SDS011;51595;24.180;-110.296;2022-08-19T14:07:55;14.82;;;4.65;;
63874;SDS011;51595;24.180;-110.296;2022-08-19T14:10:22;15.90;;;4.18;;
63874;SDS011;51595;24.180;-110.296;2022-08-19T14:12:53;18.30;;;4.68;;
63874;SDS011;51595;24.180;-110.296;2022-08-19T14:15:21;12.10;;;3.45;;
63874;SDS011;51595;24.180;-110.296;2022-08-19T14:17:48;18.77;;;4.35;;
63874;SDS011;51595;24.180;-110.296;2022-08-19T14:20:15;12.43;;;3.63;;
63874;SDS011;51595;24.180;-110.296;2022-08-19T14:22:42;18.58;;;4.03;;
63874;SDS011;51595;24.180;-110.296;2022-08-19T14:25:11;13.88;;;3.60;;
63874;SDS011;51595;24.180;-110.296;2022-08-19T14:27:40;14.65;;;3.50;;
63874;SDS011;51595;24.180;-110.296;2022-08-19T14:30:08;13.50;;;3.85;;
63874;SDS011;51595;24.180;-110.296;2022-08-19T14:32:37;15.95;;;3.72;;
63874;SDS011;51595;24.180;-110.296;2022-08-19T14:35:04;14.10;;;4.10;;
63874;SDS011;51595;24.180;-110.296;2022-08-19T14:37:33;15.52;;;4.07;;